Time;durP1;ratioP1;P1;durP2;ratioP2;P2;SDS_P1;SDS_P2;PMS_P1;PMS_P2;Temp;Humidity;BMP_temperature;BMP_pressure;BME280_temperature;BME280_humidity;BME280_pressure;Samples;Min_cycle;Max_cycle;Signal;HPM_P1;HPM_P2
2023/03/07 00:01:29;;;;;;;5.47;2.55;;;;;;;;;;5033726;28;20635;-64
2023/03/07 00:03:56;;;;;;;8.25;2.42;;;;;;;;;;5035311;28;20037;-67
2023/03/07 00:06:23;;;;;;;9.88;3.65;;;;;;;;;;5024269;28;20045;-66
2023/03/07 00:08:53;;;;;;;8.40;3.15;;;;;;;;;;5034566;28;20029;-68
2023/03/07 00:11:20;;;;;;;6.65;3.15;;;;;;;;;;5031377;28;20056;-67
2023/03/07 00:13:48;;;;;;;6.32;2.80;;;;;;;;;;5024514;28;20041;-67
2023/03/07 00:16:16;;;;;;;8.23;3.00;;;;;;;;;;5032942;28;20041;-66
2023/03/07 00:18:43;;;;;;;17.42;4.72;;;;;;;;;;5031272;28;20045;-66
2023/03/07 00:21:12;;;;;;;15.45;3.83;;;;;;;;;;5031934;28;20146;-66
2023/03/07 00:23:39;;;;;;;9.32;2.78;;;;;;;;;;5030730;28;20121;-66
2023/03/07 00:26:07;;;;;;;8.07;2.60;;;;;;;;;;5015096;28;20046;-66
2023/03/07 00:28:34;;;;;;;5.07;2.22;;;;;;;;;;5030400;28;20044;-64
2023/03/07 00:31:02;;;;;;;6.82;3.03;;;;;;;;;;5032924;28;20083;-65
2023/03/07 00:33:29;;;;;;;4.22;1.88;;;;;;;;;;5032833;28;20438;-66
2023/03/07 00:35:59;;;;;;;6.93;2.70;;;;;;;;;;5033272;28;20532;-65
2023/03/07 00:38:26;;;;;;;6.32;3.00;;;;;;;;;;5030006;28;20648;-65
2023/03/07 00:41:12;;;;;;;7.80;2.78;;;;;;;;;;5034098;28;20045;-65
2023/03/07 00:43:39;;;;;;;7.25;2.83;;;;;;;;;;5034981;28;20044;-65
2023/03/07 00:46:06;;;;;;;8.27;2.50;;;;;;;;;;5035593;28;20067;-65
2023/03/07 00:48:33;;;;;;;6.75;2.20;;;;;;;;;;5033146;28;20136;-66
2023/03/07 00:51:00;;;;;;;5.80;2.75;;;;;;;;;;5035907;28;20037;-66
2023/03/07 00:53:26;;;;;;;3.97;1.70;;;;;;;;;;5033919;28;20044;-66
2023/03/07 00:55:54;;;;;;;7.55;2.30;;;;;;;;;;5034328;28;20040;-66
2023/03/07 00:58:21;;;;;;;4.75;2.08;;;;;;;;;;5033566;28;20064;-67
2023/03/07 01:00:47;;;;;;;6.82;2.63;;;;;;;;;;5035554;28;20049;-66
2023/03/07 01:03:14;;;;;;;3.45;1.60;;;;;;;;;;5035461;28;20056;-67
2023/03/07 01:05:41;;;;;;;4.00;1.60;;;;;;;;;;5034183;28;20049;-66
2023/03/07 01:08:08;;;;;;;5.28;2.03;;;;;;;;;;5015702;28;20132;-65
2023/03/07 01:10:34;;;;;;;5.38;1.85;;;;;;;;;;5034072;28;20041;-67
2023/03/07 01:13:01;;;;;;;4.47;1.45;;;;;;;;;;5022084;28;20140;-65
2023/03/07 01:15:28;;;;;;;5.68;2.30;;;;;;;;;;5036150;28;20040;-66
2023/03/07 01:17:54;;;;;;;5.22;1.88;;;;;;;;;;5042293;28;20037;-66
2023/03/07 01:20:21;;;;;;;7.68;1.77;;;;;;;;;;5039250;28;20076;-65
2023/03/07 01:22:47;;;;;;;5.40;1.77;;;;;;;;;;5020765;28;20048;-65
2023/03/07 01:25:14;;;;;;;4.03;1.45;;;;;;;;;;5037980;28;20044;-66
2023/03/07 01:27:41;;;;;;;4.90;2.05;;;;;;;;;;5035375;28;21148;-69
2023/03/07 01:30:08;;;;;;;5.80;2.10;;;;;;;;;;5037503;28;20093;-66
2023/03/07 01:32:35;;;;;;;5.05;2.10;;;;;;;;;;5034122;28;20209;-66
2023/03/07 01:35:04;;;;;;;6.15;2.08;;;;;;;;;;5036759;28;20065;-65
2023/03/07 01:37:31;;;;;;;7.80;2.33;;;;;;;;;;5023400;28;20049;-67
2023/03/07 01:39:57;;;;;;;3.13;1.58;;;;;;;;;;5039370;28;20037;-66
2023/03/07 01:42:24;;;;;;;2.67;1.15;;;;;;;;;;5047151;28;20033;-66
2023/03/07 01:45:02;;;;;;;4.80;1.77;;;;;;;;;;5044194;28;20106;-67
2023/03/07 01:47:30;;;;;;;2.15;0.98;;;;;;;;;;5041334;28;20507;-68
2023/03/07 01:49:58;;;;;;;3.15;1.48;;;;;;;;;;5039778;28;20041;-68
2023/03/07 01:52:29;;;;;;;4.75;2.05;;;;;;;;;;5034807;28;20057;-68
2023/03/07 01:54:59;;;;;;;4.15;2.00;;;;;;;;;;5021513;28;20159;-67
2023/03/07 01:57:28;;;;;;;2.88;1.52;;;;;;;;;;5034492;28;20037;-67
2023/03/07 02:00:25;;;;;;;5.43;2.20;;;;;;;;;;5038070;28;20048;-66
2023/03/07 02:02:59;;;;;;;4.95;1.90;;;;;;;;;;5036597;28;20612;-65
2023/03/07 02:05:31;;;;;;;2.42;1.30;;;;;;;;;;5037594;28;20083;-67
2023/03/07 02:07:59;;;;;;;6.78;1.67;;;;;;;;;;5019650;28;20041;-66
2023/03/07 02:10:25;;;;;;;4.32;1.80;;;;;;;;;;5034070;28;20044;-68
2023/03/07 02:12:53;;;;;;;4.22;1.67;;;;;;;;;;5036318;28;20477;-68
2023/03/07 02:15:19;;;;;;;3.40;1.50;;;;;;;;;;5035903;28;20041;-66
2023/03/07 02:17:46;;;;;;;4.75;1.80;;;;;;;;;;5021319;23;20049;-67
2023/03/07 02:20:36;;;;;;;7.32;2.28;;;;;;;;;;5011486;28;20045;-66
2023/03/07 02:23:03;;;;;;;2.70;1.70;;;;;;;;;;4993520;28;20041;-66
2023/03/07 02:25:40;;;;;;;3.35;1.42;;;;;;;;;;5009141;28;20123;-66
2023/03/07 02:28:08;;;;;;;3.58;1.48;;;;;;;;;;5009364;28;20057;-65
2023/03/07 02:30:36;;;;;;;2.95;1.42;;;;;;;;;;5007663;28;20587;-65
2023/03/07 02:33:03;;;;;;;2.58;1.27;;;;;;;;;;5009847;28;20135;-66
2023/03/07 02:35:29;;;;;;;3.72;1.70;;;;;;;;;;5009895;28;20072;-65
2023/03/07 02:37:59;;;;;;;6.47;2.30;;;;;;;;;;5010878;28;20406;-65
2023/03/07 02:40:29;;;;;;;5.22;2.15;;;;;;;;;;5009873;28;20048;-65
2023/03/07 02:42:57;;;;;;;5.30;2.55;;;;;;;;;;5009405;28;20125;-65
2023/03/07 02:45:23;;;;;;;3.20;1.83;;;;;;;;;;5009752;28;20041;-63
2023/03/07 02:47:50;;;;;;;4.03;1.88;;;;;;;;;;5009899;28;20042;-64
2023/03/07 02:50:17;;;;;;;4.35;1.52;;;;;;;;;;5010102;28;20137;-66
2023/03/07 02:52:44;;;;;;;4.82;2.50;;;;;;;;;;5009587;28;20045;-66
2023/03/07 02:55:11;;;;;;;11.43;2.05;;;;;;;;;;5010266;28;20052;-65
2023/03/07 02:57:38;;;;;;;3.00;1.33;;;;;;;;;;5008658;28;20372;-64
2023/03/07 03:00:09;;;;;;;4.82;1.65;;;;;;;;;;5010539;28;20498;-66
2023/03/07 03:02:36;;;;;;;5.47;2.47;;;;;;;;;;5003575;28;20042;-66
2023/03/07 03:05:03;;;;;;;3.05;1.35;;;;;;;;;;5008178;28;20045;-65
2023/03/07 03:07:30;;;;;;;3.67;1.17;;;;;;;;;;5010565;28;20061;-66
2023/03/07 03:09:57;;;;;;;4.65;2.05;;;;;;;;;;5009877;28;20083;-66
2023/03/07 03:12:23;;;;;;;18.23;1.27;;;;;;;;;;5009332;28;20049;-69
2023/03/07 03:14:50;;;;;;;4.78;1.92;;;;;;;;;;5009477;28;20049;-67
2023/03/07 03:17:17;;;;;;;6.85;2.67;;;;;;;;;;5017849;28;20122;-66
2023/03/07 03:20:06;;;;;;;4.10;1.88;;;;;;;;;;5005010;28;20033;-65
2023/03/07 03:22:33;;;;;;;4.30;1.98;;;;;;;;;;5006523;28;20658;-65
2023/03/07 03:24:59;;;;;;;4.97;2.45;;;;;;;;;;4986668;28;20481;-66
2023/03/07 03:27:26;;;;;;;3.13;1.50;;;;;;;;;;5004763;28;20213;-68
2023/03/07 03:29:55;;;;;;;3.63;1.80;;;;;;;;;;5005357;28;20363;-65
2023/03/07 03:32:22;;;;;;;8.23;2.08;;;;;;;;;;5005253;28;20041;-66
2023/03/07 03:34:48;;;;;;;6.68;1.25;;;;;;;;;;5006248;28;20052;-65
2023/03/07 03:37:15;;;;;;;6.65;2.10;;;;;;;;;;5007022;28;20204;-65
2023/03/07 03:39:42;;;;;;;6.03;2.10;;;;;;;;;;5003467;28;20045;-66
2023/03/07 03:42:08;;;;;;;4.63;2.00;;;;;;;;;;5006661;28;20496;-63
2023/03/07 03:44:35;;;;;;;4.00;2.03;;;;;;;;;;5005641;28;20041;-66
2023/03/07 03:47:03;;;;;;;8.40;1.70;;;;;;;;;;5004520;28;20046;-65
2023/03/07 03:49:30;;;;;;;2.92;1.38;;;;;;;;;;5003853;28;20037;-66
2023/03/07 03:51:57;;;;;;;3.10;1.77;;;;;;;;;;5028204;28;20075;-65
2023/03/07 03:54:23;;;;;;;3.00;1.65;;;;;;;;;;5030689;28;20053;-66
2023/03/07 03:56:50;;;;;;;4.55;1.48;;;;;;;;;;5040845;28;20060;-65
2023/03/07 03:59:16;;;;;;;16.75;1.98;;;;;;;;;;5041318;28;20044;-63
2023/03/07 04:01:43;;;;;;;5.28;1.52;;;;;;;;;;5044211;28;20753;-64
2023/03/07 04:04:10;;;;;;;5.30;2.13;;;;;;;;;;5041186;28;20037;-66
2023/03/07 04:06:36;;;;;;;5.38;1.63;;;;;;;;;;5035406;28;20045;-67
2023/03/07 04:09:04;;;;;;;10.88;2.40;;;;;;;;;;5035172;28;20630;-66
2023/03/07 04:11:30;;;;;;;5.65;2.13;;;;;;;;;;5035473;28;20076;-65
2023/03/07 04:13:58;;;;;;;4.22;2.35;;;;;;;;;;5035896;28;20037;-66
2023/03/07 04:16:25;;;;;;;2.28;1.27;;;;;;;;;;5036947;28;20405;-65
2023/03/07 04:18:51;;;;;;;3.45;2.00;;;;;;;;;;5039962;28;20053;-65
2023/03/07 04:21:18;;;;;;;3.33;1.88;;;;;;;;;;5038026;28;20053;-68
2023/03/07 04:23:48;;;;;;;4.07;1.88;;;;;;;;;;5037724;28;20045;-65
2023/03/07 04:26:15;;;;;;;2.42;1.55;;;;;;;;;;5038390;28;20048;-65
2023/03/07 04:28:45;;;;;;;10.38;2.42;;;;;;;;;;5036612;28;20052;-65
2023/03/07 04:31:13;;;;;;;3.03;2.08;;;;;;;;;;5038137;28;20102;-65
2023/03/07 04:33:40;;;;;;;4.53;2.17;;;;;;;;;;5036902;28;20074;-65
2023/03/07 04:36:07;;;;;;;4.40;2.47;;;;;;;;;;5038000;28;20049;-65
2023/03/07 04:38:33;;;;;;;3.65;2.03;;;;;;;;;;5036872;28;20043;-66
2023/03/07 04:41:00;;;;;;;2.80;1.42;;;;;;;;;;5038643;28;20131;-67
2023/03/07 04:43:26;;;;;;;3.95;1.85;;;;;;;;;;5038448;28;20055;-66
2023/03/07 04:45:53;;;;;;;7.53;2.10;;;;;;;;;;5038308;28;20029;-66
2023/03/07 04:48:20;;;;;;;4.97;1.83;;;;;;;;;;5037480;28;20041;-67
2023/03/07 04:50:51;;;;;;;8.65;3.55;;;;;;;;;;5038368;28;20060;-65
2023/03/07 04:53:18;;;;;;;10.35;3.08;;;;;;;;;;5034518;28;20044;-65
2023/03/07 04:55:45;;;;;;;5.50;2.35;;;;;;;;;;5036915;28;20041;-66
2023/03/07 04:58:12;;;;;;;4.45;2.22;;;;;;;;;;5036577;28;20029;-64
2023/03/07 05:00:40;;;;;;;8.85;3.95;;;;;;;;;;5035249;28;20036;-65
2023/03/07 05:03:07;;;;;;;5.90;2.90;;;;;;;;;;5037289;28;20490;-65
2023/03/07 05:05:34;;;;;;;4.20;2.63;;;;;;;;;;5037377;28;20043;-65
2023/03/07 05:08:00;;;;;;;3.97;1.67;;;;;;;;;;5037216;28;20128;-65
2023/03/07 05:10:31;;;;;;;3.10;1.77;;;;;;;;;;5036974;28;20041;-65
2023/03/07 05:12:58;;;;;;;2.63;1.52;;;;;;;;;;5037406;28;20513;-63
2023/03/07 05:15:25;;;;;;;5.43;2.72;;;;;;;;;;5036259;28;20516;-63
2023/03/07 05:17:52;;;;;;;6.43;2.53;;;;;;;;;;5036553;28;20136;-66
2023/03/07 05:20:18;;;;;;;5.72;2.40;;;;;;;;;;5037646;28;20135;-65
2023/03/07 05:22:45;;;;;;;3.88;1.77;;;;;;;;;;5035945;28;20045;-66
2023/03/07 05:25:12;;;;;;;4.57;2.33;;;;;;;;;;5037970;28;20052;-65
2023/03/07 05:27:38;;;;;;;4.15;1.48;;;;;;;;;;5035492;28;20068;-65
2023/03/07 05:30:05;;;;;;;3.83;1.70;;;;;;;;;;5037381;28;20064;-67
2023/03/07 05:32:32;;;;;;;6.22;2.28;;;;;;;;;;5036943;28;20119;-65
2023/03/07 05:34:59;;;;;;;3.72;2.38;;;;;;;;;;5036708;28;21082;-64
2023/03/07 05:37:45;;;;;;;4.28;1.98;;;;;;;;;;4972926;28;20042;-65
2023/03/07 05:40:12;;;;;;;5.70;2.75;;;;;;;;;;4974057;28;20085;-65
2023/03/07 05:42:39;;;;;;;4.35;2.45;;;;;;;;;;4973082;28;20065;-66
2023/03/07 05:45:06;;;;;;;9.43;2.15;;;;;;;;;;4967100;28;20038;-65
2023/03/07 05:47:33;;;;;;;4.63;2.05;;;;;;;;;;4973955;28;20092;-67
2023/03/07 05:49:59;;;;;;;10.98;2.13;;;;;;;;;;4974833;28;20042;-68
2023/03/07 05:52:27;;;;;;;3.00;1.75;;;;;;;;;;4974075;28;20069;-66
2023/03/07 05:54:54;;;;;;;12.88;2.03;;;;;;;;;;4974916;28;20049;-67
2023/03/07 05:57:21;;;;;;;5.32;2.42;;;;;;;;;;4956569;28;20038;-66
2023/03/07 05:59:48;;;;;;;10.50;2.95;;;;;;;;;;4975020;28;20497;-65
2023/03/07 06:02:14;;;;;;;5.95;2.38;;;;;;;;;;4966792;28;20653;-66
2023/03/07 06:04:41;;;;;;;5.50;2.63;;;;;;;;;;4973177;28;20593;-65
2023/03/07 06:07:07;;;;;;;4.25;2.10;;;;;;;;;;4974939;28;20043;-65
2023/03/07 06:09:34;;;;;;;4.13;2.05;;;;;;;;;;5024153;28;20045;-65
2023/03/07 06:12:01;;;;;;;5.07;2.33;;;;;;;;;;5036780;28;20484;-66
2023/03/07 06:14:27;;;;;;;8.38;3.38;;;;;;;;;;5035700;28;20104;-65
2023/03/07 06:16:54;;;;;;;4.07;2.25;;;;;;;;;;5035650;28;20052;-66
2023/03/07 06:19:21;;;;;;;6.13;3.42;;;;;;;;;;5033293;28;20044;-64
2023/03/07 06:21:47;;;;;;;8.57;3.47;;;;;;;;;;5036038;28;20874;-67
2023/03/07 06:24:14;;;;;;;11.63;2.42;;;;;;;;;;5035294;28;20041;-67
2023/03/07 06:26:41;;;;;;;9.07;4.60;;;;;;;;;;5034240;28;20371;-67
2023/03/07 06:29:07;;;;;;;10.73;3.90;;;;;;;;;;5035457;28;20059;-68
2023/03/07 06:31:34;;;;;;;6.38;2.97;;;;;;;;;;5034785;28;20572;-67
2023/03/07 06:34:00;;;;;;;9.00;3.95;;;;;;;;;;5018991;28;20044;-68
2023/03/07 06:36:27;;;;;;;5.07;2.00;;;;;;;;;;5035467;28;20037;-65
2023/03/07 06:38:54;;;;;;;9.10;2.80;;;;;;;;;;5033083;28;21697;-67
2023/03/07 06:41:20;;;;;;;5.03;2.85;;;;;;;;;;5034444;28;20029;-66
2023/03/07 06:43:51;;;;;;;7.75;3.65;;;;;;;;;;5036465;28;20883;-66
2023/03/07 06:46:19;;;;;;;7.93;3.67;;;;;;;;;;5036424;28;20437;-65
2023/03/07 06:48:46;;;;;;;6.10;2.40;;;;;;;;;;5028350;28;20045;-65
2023/03/07 06:51:13;;;;;;;4.70;2.45;;;;;;;;;;5036417;28;20107;-66
2023/03/07 06:53:40;;;;;;;5.82;2.83;;;;;;;;;;5035570;28;20044;-66
2023/03/07 06:56:07;;;;;;;5.10;3.08;;;;;;;;;;5017605;28;20053;-66
2023/03/07 06:58:33;;;;;;;3.72;2.80;;;;;;;;;;5034599;28;20037;-66
2023/03/07 07:01:00;;;;;;;4.10;2.63;;;;;;;;;;5036168;28;20037;-65
2023/03/07 07:03:27;;;;;;;4.80;2.83;;;;;;;;;;5034723;28;20076;-65
2023/03/07 07:06:13;;;;;;;8.82;2.47;;;;;;;;;;5011148;28;20140;-66
2023/03/07 07:08:40;;;;;;;3.17;2.13;;;;;;;;;;5010070;28;20091;-65
2023/03/07 07:11:06;;;;;;;2.83;1.60;;;;;;;;;;5011119;28;20041;-67
2023/03/07 07:13:33;;;;;;;7.93;3.50;;;;;;;;;;5010433;28;20084;-65
2023/03/07 07:16:06;;;;;;;3.20;2.10;;;;;;;;;;5010022;28;20043;-64
2023/03/07 07:18:33;;;;;;;5.10;2.88;;;;;;;;;;4995576;28;20060;-64
2023/03/07 07:21:00;;;;;;;3.38;2.15;;;;;;;;;;4995483;28;20047;-66
2023/03/07 07:23:27;;;;;;;7.93;2.70;;;;;;;;;;4966243;28;20109;-65
2023/03/07 07:25:53;;;;;;;4.00;2.05;;;;;;;;;;4996284;28;20041;-65
2023/03/07 07:28:20;;;;;;;6.95;2.83;;;;;;;;;;4995234;28;20054;-66
2023/03/07 07:30:47;;;;;;;4.53;1.63;;;;;;;;;;4996391;28;20034;-65
2023/03/07 07:33:13;;;;;;;4.00;2.15;;;;;;;;;;4996735;28;20620;-65
2023/03/07 07:35:42;;;;;;;5.20;2.58;;;;;;;;;;4995527;28;20146;-65
2023/03/07 07:38:09;;;;;;;6.72;2.65;;;;;;;;;;4994225;28;20065;-64
2023/03/07 07:40:35;;;;;;;3.22;2.22;;;;;;;;;;4996642;28;20562;-65
2023/03/07 07:43:02;;;;;;;4.55;2.13;;;;;;;;;;4992327;28;20049;-62
2023/03/07 07:45:28;;;;;;;6.95;2.53;;;;;;;;;;4982325;28;20406;-64
2023/03/07 07:47:55;;;;;;;5.25;2.63;;;;;;;;;;4979940;28;20132;-65
2023/03/07 07:50:22;;;;;;;5.18;2.90;;;;;;;;;;4980245;28;20046;-66
2023/03/07 07:52:49;;;;;;;6.47;2.90;;;;;;;;;;4981398;28;20054;-64
2023/03/07 07:55:16;;;;;;;5.45;3.15;;;;;;;;;;4981803;28;20138;-65
2023/03/07 07:57:42;;;;;;;6.93;2.80;;;;;;;;;;4979574;28;20042;-65
2023/03/07 08:00:10;;;;;;;3.15;1.95;;;;;;;;;;4980801;28;20034;-65
2023/03/07 08:02:37;;;;;;;3.03;2.20;;;;;;;;;;4980060;28;20495;-65
2023/03/07 08:05:06;;;;;;;3.85;1.55;;;;;;;;;;4981075;28;20041;-65
2023/03/07 08:07:33;;;;;;;3.17;1.85;;;;;;;;;;4979282;28;20881;-64
2023/03/07 08:10:00;;;;;;;4.53;1.85;;;;;;;;;;4980926;28;20371;-64
2023/03/07 08:12:26;;;;;;;5.00;2.60;;;;;;;;;;4979393;28;20046;-64
2023/03/07 08:14:53;;;;;;;3.45;2.35;;;;;;;;;;4982048;28;20043;-65
2023/03/07 08:17:19;;;;;;;3.55;2.15;;;;;;;;;;4990866;28;20919;-65
2023/03/07 08:19:46;;;;;;;3.75;1.83;;;;;;;;;;5014314;28;20044;-64
2023/03/07 08:22:13;;;;;;;4.32;1.88;;;;;;;;;;5012674;28;20046;-64
2023/03/07 08:24:39;;;;;;;3.10;1.98;;;;;;;;;;5013219;28;20064;-64
2023/03/07 08:27:06;;;;;;;4.50;2.00;;;;;;;;;;5012739;28;20155;-64
2023/03/07 08:29:34;;;;;;;3.35;1.77;;;;;;;;;;5024261;28;20068;-66
2023/03/07 08:32:00;;;;;;;6.88;3.08;;;;;;;;;;5013470;28;20458;-66
2023/03/07 08:34:27;;;;;;;6.15;2.90;;;;;;;;;;5013208;28;21530;-66
2023/03/07 08:36:54;;;;;;;4.15;2.22;;;;;;;;;;5013319;28;20040;-65
2023/03/07 08:39:20;;;;;;;5.65;2.25;;;;;;;;;;5012252;28;20045;-64
2023/03/07 08:41:47;;;;;;;6.82;2.33;;;;;;;;;;5013379;28;20034;-64
2023/03/07 08:44:13;;;;;;;7.75;3.08;;;;;;;;;;5013648;28;20050;-64
2023/03/07 08:46:40;;;;;;;3.17;2.20;;;;;;;;;;5022163;28;20050;-64
2023/03/07 08:49:07;;;;;;;2.88;1.52;;;;;;;;;;5013364;28;20069;-65
2023/03/07 08:51:33;;;;;;;4.13;2.40;;;;;;;;;;5015668;28;20461;-64
2023/03/07 08:54:00;;;;;;;7.10;2.95;;;;;;;;;;5019908;28;20049;-64
2023/03/07 08:56:27;;;;;;;8.73;3.63;;;;;;;;;;5013562;28;20101;-65
2023/03/07 08:58:53;;;;;;;13.52;3.05;;;;;;;;;;5014153;28;20044;-65
2023/03/07 09:01:20;;;;;;;5.95;3.17;;;;;;;;;;5013108;28;20506;-64
2023/03/07 09:03:47;;;;;;;6.18;3.65;;;;;;;;;;5017075;28;20041;-64
2023/03/07 09:06:18;;;;;;;8.13;3.17;;;;;;;;;;5017032;28;20482;-64
2023/03/07 09:08:45;;;;;;;13.15;3.70;;;;;;;;;;5015223;28;20053;-64
2023/03/07 09:11:11;;;;;;;10.05;3.53;;;;;;;;;;5016866;28;20045;-64
2023/03/07 09:13:38;;;;;;;6.47;3.10;;;;;;;;;;5016757;28;20046;-65
2023/03/07 09:16:05;;;;;;;5.10;2.97;;;;;;;;;;5015595;28;21363;-64
2023/03/07 09:18:32;;;;;;;10.00;4.63;;;;;;;;;;5014415;28;20068;-64
2023/03/07 09:21:02;;;;;;;10.38;4.10;;;;;;;;;;5016587;28;20042;-65
2023/03/07 09:23:29;;;;;;;10.20;3.53;;;;;;;;;;5015934;28;20378;-66
2023/03/07 09:25:59;;;;;;;7.25;3.20;;;;;;;;;;5016781;28;20124;-65
2023/03/07 09:28:26;;;;;;;11.40;2.95;;;;;;;;;;5015273;28;20128;-66
2023/03/07 09:30:53;;;;;;;7.68;4.03;;;;;;;;;;5017076;28;20072;-65
2023/03/07 09:33:20;;;;;;;5.95;3.17;;;;;;;;;;5017245;28;20231;-65
2023/03/07 09:35:46;;;;;;;8.10;2.78;;;;;;;;;;5025379;28;20502;-65
2023/03/07 09:38:13;;;;;;;5.97;3.00;;;;;;;;;;5023135;28;20045;-65
2023/03/07 09:40:40;;;;;;;9.35;3.58;;;;;;;;;;5036912;28;20064;-65
2023/03/07 09:43:15;;;;;;;5.82;3.22;;;;;;;;;;5037576;28;20454;-66
2023/03/07 09:45:50;;;;;;;4.32;2.35;;;;;;;;;;5036602;28;20127;-67
2023/03/07 09:48:26;;;;;;;6.07;3.58;;;;;;;;;;5033315;28;20541;-65
2023/03/07 09:51:20;;;;;;;5.32;2.67;;;;;;;;;;5037193;28;20067;-66
2023/03/07 09:53:49;;;;;;;4.57;3.03;;;;;;;;;;5017501;28;20428;-65
2023/03/07 09:56:24;;;;;;;4.22;2.45;;;;;;;;;;5018608;28;20157;-65
2023/03/07 09:58:58;;;;;;;5.43;3.70;;;;;;;;;;5035288;28;20041;-69
2023/03/07 10:01:27;;;;;;;5.53;3.47;;;;;;;;;;5036299;28;20052;-65
2023/03/07 10:03:57;;;;;;;6.70;2.97;;;;;;;;;;5018939;28;20466;-65
2023/03/07 10:06:26;;;;;;;8.75;4.57;;;;;;;;;;5016746;28;20417;-65
2023/03/07 10:08:54;;;;;;;8.57;2.83;;;;;;;;;;5022925;28;20410;-64
2023/03/07 10:11:23;;;;;;;5.85;2.97;;;;;;;;;;5036127;28;20052;-66
2023/03/07 10:13:58;;;;;;;7.70;3.25;;;;;;;;;;5036228;28;20048;-65
2023/03/07 10:16:39;;;;;;;8.70;3.80;;;;;;;;;;5035898;28;20078;-65
2023/03/07 10:19:23;;;;;;;6.05;3.13;;;;;;;;;;5035172;28;20161;-66
2023/03/07 10:22:05;;;;;;;9.07;4.05;;;;;;;;;;5036058;28;20049;-68
2023/03/07 10:24:42;;;;;;;10.00;4.13;;;;;;;;;;5033170;28;20049;-65
2023/03/07 10:27:09;;;;;;;8.77;3.80;;;;;;;;;;5035870;28;20126;-65
2023/03/07 10:29:39;;;;;;;8.95;3.72;;;;;;;;;;5034994;28;20064;-64
2023/03/07 10:32:24;;;;;;;10.57;4.05;;;;;;;;;;5036256;28;20076;-63
2023/03/07 10:35:01;;;;;;;4.88;2.08;;;;;;;;;;5015997;28;20087;-65
2023/03/07 10:37:42;;;;;;;3.22;1.92;;;;;;;;;;5015108;28;20498;-65
2023/03/07 10:40:16;;;;;;;7.53;3.88;;;;;;;;;;5014783;28;20721;-65
2023/03/07 10:42:43;;;;;;;9.65;3.38;;;;;;;;;;5015156;28;20045;-65
2023/03/07 10:45:13;;;;;;;11.15;4.40;;;;;;;;;;5015357;28;20038;-64
2023/03/07 10:47:40;;;;;;;10.02;4.30;;;;;;;;;;5016352;28;20042;-65
2023/03/07 10:50:16;;;;;;;7.57;4.00;;;;;;;;;;5018436;28;20042;-65
2023/03/07 10:52:52;;;;;;;8.38;3.97;;;;;;;;;;5022206;28;20140;-68
2023/03/07 10:55:37;;;;;;;8.32;2.70;;;;;;;;;;5041862;28;20053;-66
2023/03/07 10:58:18;;;;;;;5.75;3.60;;;;;;;;;;5026943;28;20042;-65
2023/03/07 11:00:46;;;;;;;5.95;3.30;;;;;;;;;;5022433;28;20045;-65
2023/03/07 11:03:24;;;;;;;5.97;3.97;;;;;;;;;;5018950;28;20049;-66
2023/03/07 11:05:51;;;;;;;8.35;3.03;;;;;;;;;;5044533;28;20099;-65
2023/03/07 11:08:36;;;;;;;6.97;3.13;;;;;;;;;;5048119;28;20060;-64
2023/03/07 11:11:04;;;;;;;4.40;2.78;;;;;;;;;;5050273;28;20032;-67
2023/03/07 11:13:30;;;;;;;5.68;3.00;;;;;;;;;;5048612;28;20052;-63
2023/03/07 11:16:29;;;;;;;5.25;3.03;;;;;;;;;;5044356;28;20078;-66
2023/03/07 11:18:56;;;;;;;5.70;2.55;;;;;;;;;;4977963;28;20057;-66
2023/03/07 11:21:37;;;;;;;5.25;3.03;;;;;;;;;;5042128;28;20041;-66
2023/03/07 11:24:05;;;;;;;11.07;5.35;;;;;;;;;;5035534;28;20090;-66
2023/03/07 11:26:36;;;;;;;5.60;4.00;;;;;;;;;;5033784;28;20041;-65
2023/03/07 11:29:07;;;;;;;6.85;4.35;;;;;;;;;;5031375;28;20041;-64
2023/03/07 11:31:58;;;;;;;6.63;3.47;;;;;;;;;;5033589;28;20045;-65
2023/03/07 11:34:24;;;;;;;9.05;2.45;;;;;;;;;;5033882;28;20120;-65
2023/03/07 11:36:56;;;;;;;6.75;4.45;;;;;;;;;;5034670;28;20067;-68
2023/03/07 11:39:35;;;;;;;7.75;3.90;;;;;;;;;;5034771;28;20037;-65
2023/03/07 11:42:14;;;;;;;4.40;3.10;;;;;;;;;;5034656;28;20106;-64
2023/03/07 11:44:57;;;;;;;8.45;3.75;;;;;;;;;;5034150;28;20782;-65
2023/03/07 11:47:23;;;;;;;7.85;2.92;;;;;;;;;;5021663;28;20048;-66
2023/03/07 11:49:59;;;;;;;10.23;5.03;;;;;;;;;;5034544;28;20044;-66
2023/03/07 11:52:44;;;;;;;5.30;3.47;;;;;;;;;;5033657;28;20419;-66
2023/03/07 11:55:19;;;;;;;9.05;3.67;;;;;;;;;;5034610;28;20157;-64
2023/03/07 11:57:52;;;;;;;9.43;4.55;;;;;;;;;;5010738;28;20049;-64
2023/03/07 12:00:55;;;;;;;3.78;2.60;;;;;;;;;;5034250;28;20445;-64
2023/03/07 12:03:41;;;;;;;6.10;3.35;;;;;;;;;;4928915;28;20050;-64
2023/03/07 12:06:13;;;;;;;6.18;2.92;;;;;;;;;;4976765;28;20065;-63
2023/03/07 12:08:58;;;;;;;6.50;3.38;;;;;;;;;;5022628;28;20064;-65
2023/03/07 12:11:48;;;;;;;13.35;6.00;;;;;;;;;;5012150;28;20084;-66
2023/03/07 12:14:22;;;;;;;6.47;3.42;;;;;;;;;;5013459;28;20117;-65
2023/03/07 12:16:54;;;;;;;4.53;2.78;;;;;;;;;;5029185;28;20103;-65
2023/03/07 12:19:30;;;;;;;16.83;4.50;;;;;;;;;;5014438;28;20356;-71
2023/03/07 12:21:57;;;;;;;6.00;4.30;;;;;;;;;;5026929;28;20049;-65
2023/03/07 12:24:28;;;;;;;9.98;4.50;;;;;;;;;;5016061;28;20037;-67
2023/03/07 12:27:00;;;;;;;5.63;3.55;;;;;;;;;;5026853;28;20048;-67
2023/03/07 12:29:26;;;;;;;4.53;2.80;;;;;;;;;;5024651;28;20052;-66
2023/03/07 12:31:56;;;;;;;7.80;2.70;;;;;;;;;;5014287;28;20418;-66
2023/03/07 12:34:36;;;;;;;8.85;4.53;;;;;;;;;;5012229;28;20065;-66
2023/03/07 12:37:06;;;;;;;5.72;3.42;;;;;;;;;;5016784;28;20674;-66
2023/03/07 12:39:47;;;;;;;8.82;4.80;;;;;;;;;;5016478;28;20115;-65
2023/03/07 12:42:40;;;;;;;8.95;3.45;;;;;;;;;;5011638;28;20049;-64
2023/03/07 12:45:11;;;;;;;10.43;4.10;;;;;;;;;;5015244;28;20079;-64
2023/03/07 12:47:43;;;;;;;9.02;4.50;;;;;;;;;;5019582;28;20453;-67
2023/03/07 12:50:33;;;;;;;8.65;4.22;;;;;;;;;;5021836;28;20117;-64
2023/03/07 12:53:04;;;;;;;6.70;3.28;;;;;;;;;;5016418;28;20053;-63
2023/03/07 12:55:35;;;;;;;6.35;3.17;;;;;;;;;;5014350;28;20044;-64
2023/03/07 12:58:06;;;;;;;9.90;3.50;;;;;;;;;;5015098;28;20046;-65
2023/03/07 13:00:35;;;;;;;10.00;4.63;;;;;;;;;;5014363;28;20053;-64
2023/03/07 13:03:06;;;;;;;7.78;3.95;;;;;;;;;;5017657;28;20049;-67
2023/03/07 13:05:36;;;;;;;5.03;3.78;;;;;;;;;;5015023;28;20124;-64
2023/03/07 13:08:05;;;;;;;6.03;3.70;;;;;;;;;;5000487;28;20030;-65
2023/03/07 13:10:32;;;;;;;6.30;3.67;;;;;;;;;;5014122;28;20037;-66
2023/03/07 13:12:58;;;;;;;6.63;3.90;;;;;;;;;;5017458;28;20092;-67
2023/03/07 13:15:37;;;;;;;6.40;2.83;;;;;;;;;;5026628;28;20044;-68
2023/03/07 13:18:04;;;;;;;6.22;2.50;;;;;;;;;;5018553;28;20086;-65
2023/03/07 13:20:36;;;;;;;6.35;3.67;;;;;;;;;;5015234;28;20041;-68
2023/03/07 13:23:32;;;;;;;8.63;4.10;;;;;;;;;;5017924;28;20041;-67
2023/03/07 13:26:05;;;;;;;5.60;3.42;;;;;;;;;;4996127;28;20049;-61
2023/03/07 13:28:39;;;;;;;9.07;4.05;;;;;;;;;;5016409;28;20068;-63
2023/03/07 13:31:29;;;;;;;5.82;3.75;;;;;;;;;;5016362;28;20048;-64
2023/03/07 13:33:56;;;;;;;4.55;3.10;;;;;;;;;;5028574;28;20049;-63
2023/03/07 13:36:34;;;;;;;7.53;3.63;;;;;;;;;;5036186;28;20043;-64
2023/03/07 13:39:00;;;;;;;5.97;2.92;;;;;;;;;;5038098;28;20037;-63
2023/03/07 13:41:44;;;;;;;5.50;3.38;;;;;;;;;;5036173;28;20110;-66
2023/03/07 13:44:29;;;;;;;11.98;4.50;;;;;;;;;;5037529;28;20064;-65
2023/03/07 13:47:01;;;;;;;5.30;3.10;;;;;;;;;;5026776;28;20041;-66
2023/03/07 13:49:38;;;;;;;11.63;4.10;;;;;;;;;;5037138;28;21379;-65
2023/03/07 13:52:29;;;;;;;5.28;3.28;;;;;;;;;;5036496;28;20142;-64
2023/03/07 13:54:57;;;;;;;8.20;3.15;;;;;;;;;;5037610;28;20048;-61
2023/03/07 13:57:26;;;;;;;6.70;3.95;;;;;;;;;;5036346;28;20396;-67
2023/03/07 13:59:54;;;;;;;12.20;3.67;;;;;;;;;;5034101;28;20040;-66
2023/03/07 14:02:22;;;;;;;4.28;2.45;;;;;;;;;;5033838;28;20152;-65
2023/03/07 14:04:53;;;;;;;5.45;2.58;;;;;;;;;;5033343;28;20124;-67
2023/03/07 14:07:30;;;;;;;11.55;5.10;;;;;;;;;;5035682;28;20053;-66
2023/03/07 14:10:09;;;;;;;6.63;2.67;;;;;;;;;;5035428;28;20052;-66
2023/03/07 14:12:35;;;;;;;4.45;2.50;;;;;;;;;;5036002;28;20532;-67
2023/03/07 14:15:08;;;;;;;5.63;3.55;;;;;;;;;;5014250;28;20141;-65
2023/03/07 14:17:44;;;;;;;3.90;2.63;;;;;;;;;;5034284;28;20140;-67
2023/03/07 14:20:23;;;;;;;5.15;3.63;;;;;;;;;;5012414;28;20401;-65
2023/03/07 14:23:05;;;;;;;9.10;2.35;;;;;;;;;;5019446;28;21005;-63
2023/03/07 14:25:37;;;;;;;9.27;4.20;;;;;;;;;;5026689;28;20033;-66
2023/03/07 14:28:18;;;;;;;2.60;1.95;;;;;;;;;;5036479;28;20041;-66
2023/03/07 14:30:53;;;;;;;8.07;3.05;;;;;;;;;;5035999;28;20033;-66
2023/03/07 14:33:20;;;;;;;4.70;3.22;;;;;;;;;;5034749;28;20918;-64
2023/03/07 14:35:47;;;;;;;5.85;3.22;;;;;;;;;;5037127;28;20037;-64
2023/03/07 14:38:20;;;;;;;3.10;2.10;;;;;;;;;;5018902;28;20114;-64
2023/03/07 14:40:50;;;;;;;8.25;3.58;;;;;;;;;;5034617;28;20049;-63
2023/03/07 14:43:35;;;;;;;9.38;5.90;;;;;;;;;;5036201;28;20585;-63
2023/03/07 14:46:07;;;;;;;8.15;4.00;;;;;;;;;;5034903;28;20068;-64
2023/03/07 14:48:55;;;;;;;8.02;4.50;;;;;;;;;;5035207;28;20049;-64
2023/03/07 14:51:23;;;;;;;6.00;3.70;;;;;;;;;;5034515;28;20037;-64
2023/03/07 14:53:50;;;;;;;12.73;4.38;;;;;;;;;;5035960;28;20033;-63
2023/03/07 14:56:22;;;;;;;4.90;2.80;;;;;;;;;;5035139;28;20048;-63
2023/03/07 14:58:53;;;;;;;10.82;4.72;;;;;;;;;;5034652;28;20029;-64